Airfield :
LOGIN :

Register | Disclaimer

   EN    FR    IT 

 










Legend :    VFR   Marginal VFR   IFR   Intensive IFR   Very Intensive IFR
Visi :
Ceiling :
>= 8 km
>= 3000ft
5 to 8 km
1000 to 3000 ft
1500m to 5 km
500 to 1000 ft
800 to 1500m
200 to 500 ft
< 800m
< 200 ft
Symbols :   Thunderstorms  Fog  Heavy snow  Heavy precipitations  Wind > 20 kt
SIGMETs :     Misc.  Thunderstorms  Icing  Turbulence  Mountain Waves  Volcanic Ashes






- Airport Elevation : 32 ft
- IATA code : LKZ


EGUL - RAF Lakenheath

CURRENT METAR :
  • 102256Z AUTO 26013KT 9999 OVC080 09/05 A2967 RMK AO2 SLP051 T00850052 $

EXPIRED METARs :
  • 102156Z AUTO 26011KT 9999 FEW040 BKN055 09/06 A2963 RMK AO2 RAE22DZB22E23 SLP037 P0001 T00930060 $
  • 102123Z AUTO 26013G20KT 9999 SCT034 BKN065 09/06 A2962 RMK AO2 RAE22DZB22E23 SLP034 $
  • 102056Z AUTO 26014KT 9999 -RA FEW010 OVC029 09/08 A2960 RMK AO2 PK WND 24037/33 RAB05E27RAB30 CIG 024 RWY06 SLP027 P0004 60004 T00940078 53013 $
  • 102045Z AUTO 28017G28KT 5000 RA BR SCT012 SCT018 OVC025 10/08 A2960 RMK AO2 RAB05E27RAB30 CIG 018V025 CIG 018 RWY06 SLP027 $

TAF TAF EGUL
Valid from the 10 at 21:00 until the 12 at 03:00 UTC


102100Z 1021/1203 25012G22KT 8000 -SHRA BKN020 610509 QNH2952INS
TEMPO 1021/1022 25020G35KT BKN015 510003
BECMG 1022/1023 25010G18KT 9999 NSW BKN020 BKN070 620703 QNH2954INS
BECMG 1100/1101 24012KT 9999 SCT020 QNH2950INS
BECMG 1116/1117 17012KT 9000 -SHRA BKN020 610308 QNH2949INS
BECMG 1120/1121 26012KT 9999 NSW SCT020 QNH2954INS TX11/1021Z TN02/1107Z LAST NO AMDS AFT 1022 NEXT 1105



MET'MAP, your aeronautical weather chart ! - Copyright ORBIFLY December 2007 - Disclaimer

ORBIFLY MET'MAP TEAM :

Programming & Development : Alexandra Zaïnal
Concept & original design : Baudouin d'Aumeries
Assistance for programming : Marc-Olivier Méhu
Technical & hardware support : Manuel Goepfert

Contact : metmap@orbifly.com




SOURCES & CREDITS :

   NOAA